sensor_id;sensor_type;location;lat;lon;timestamp;P1;durP1;ratioP1;P2;durP2;ratioP2
59571;SDS011;70118;45.638;11.714;2023-11-18T00:00:19;4.72;;;1.70;;
59571;SDS011;70118;45.638;11.714;2023-11-18T00:02:45;4.63;;;1.67;;
59571;SDS011;70118;45.638;11.714;2023-11-18T00:05:11;5.00;;;1.75;;
59571;SDS011;70118;45.638;11.714;2023-11-18T00:07:39;5.13;;;2.03;;
59571;SDS011;70118;45.638;11.714;2023-11-18T00:10:05;4.70;;;1.97;;
59571;SDS011;70118;45.638;11.714;2023-11-18T00:12:31;4.50;;;1.73;;
59571;SDS011;70118;45.638;11.714;2023-11-18T00:15:02;4.70;;;1.80;;
59571;SDS011;70118;45.638;11.714;2023-11-18T00:17:31;5.07;;;1.90;;
59571;SDS011;70118;45.638;11.714;2023-11-18T00:19:57;4.68;;;1.60;;
59571;SDS011;70118;45.638;11.714;2023-11-18T00:22:23;4.67;;;1.70;;
59571;SDS011;70118;45.638;11.714;2023-11-18T00:24:49;4.97;;;2.00;;
59571;SDS011;70118;45.638;11.714;2023-11-18T00:27:15;5.03;;;1.65;;
59571;SDS011;70118;45.638;11.714;2023-11-18T00:29:41;5.00;;;1.77;;
59571;SDS011;70118;45.638;11.714;2023-11-18T00:32:09;4.97;;;1.93;;
59571;SDS011;70118;45.638;11.714;2023-11-18T00:34:35;4.38;;;1.80;;
59571;SDS011;70118;45.638;11.714;2023-11-18T00:37:01;4.57;;;1.33;;
59571;SDS011;70118;45.638;11.714;2023-11-18T00:39:27;4.90;;;2.10;;
59571;SDS011;70118;45.638;11.714;2023-11-18T00:41:53;4.17;;;1.30;;
59571;SDS011;70118;45.638;11.714;2023-11-18T00:44:20;4.65;;;1.45;;
59571;SDS011;70118;45.638;11.714;2023-11-18T00:46:47;4.38;;;1.60;;
59571;SDS011;70118;45.638;11.714;2023-11-18T00:49:12;3.45;;;1.10;;
59571;SDS011;70118;45.638;11.714;2023-11-18T00:51:38;4.67;;;1.50;;
59571;SDS011;70118;45.638;11.714;2023-11-18T00:54:06;4.45;;;1.50;;
59571;SDS011;70118;45.638;11.714;2023-11-18T00:56:32;4.18;;;1.42;;
59571;SDS011;70118;45.638;11.714;2023-11-18T00:58:58;4.07;;;1.20;;
59571;SDS011;70118;45.638;11.714;2023-11-18T01:01:26;4.43;;;1.53;;
59571;SDS011;70118;45.638;11.714;2023-11-18T01:03:53;4.65;;;1.52;;
59571;SDS011;70118;45.638;11.714;2023-11-18T01:06:19;3.92;;;1.42;;
59571;SDS011;70118;45.638;11.714;2023-11-18T01:08:46;4.10;;;1.50;;
59571;SDS011;70118;45.638;11.714;2023-11-18T01:11:16;4.80;;;1.42;;
59571;SDS011;70118;45.638;11.714;2023-11-18T01:13:47;5.43;;;1.40;;
59571;SDS011;70118;45.638;11.714;2023-11-18T01:16:16;4.68;;;1.45;;
59571;SDS011;70118;45.638;11.714;2023-11-18T01:18:42;4.68;;;1.80;;
59571;SDS011;70118;45.638;11.714;2023-11-18T01:21:08;4.43;;;1.35;;
59571;SDS011;70118;45.638;11.714;2023-11-18T01:23:36;4.10;;;1.40;;
59571;SDS011;70118;45.638;11.714;2023-11-18T01:26:04;4.82;;;1.50;;
59571;SDS011;70118;45.638;11.714;2023-11-18T01:28:31;4.05;;;1.35;;
59571;SDS011;70118;45.638;11.714;2023-11-18T01:31:02;3.85;;;1.30;;
59571;SDS011;70118;45.638;11.714;2023-11-18T01:33:29;4.40;;;1.50;;
59571;SDS011;70118;45.638;11.714;2023-11-18T01:35:55;3.97;;;1.40;;
59571;SDS011;70118;45.638;11.714;2023-11-18T01:38:21;3.58;;;1.27;;
59571;SDS011;70118;45.638;11.714;2023-11-18T01:40:47;3.40;;;1.20;;
59571;SDS011;70118;45.638;11.714;2023-11-18T01:43:13;4.00;;;1.20;;
59571;SDS011;70118;45.638;11.714;2023-11-18T01:45:40;4.03;;;1.23;;
59571;SDS011;70118;45.638;11.714;2023-11-18T01:48:06;4.03;;;1.50;;
59571;SDS011;70118;45.638;11.714;2023-11-18T01:50:35;4.00;;;1.40;;
59571;SDS011;70118;45.638;11.714;2023-11-18T01:53:03;3.60;;;1.30;;
59571;SDS011;70118;45.638;11.714;2023-11-18T01:55:31;5.40;;;1.30;;
59571;SDS011;70118;45.638;11.714;2023-11-18T01:58:00;3.73;;;1.13;;
59571;SDS011;70118;45.638;11.714;2023-11-18T02:00:34;4.40;;;1.20;;
59571;SDS011;70118;45.638;11.714;2023-11-18T02:03:03;3.75;;;1.30;;
59571;SDS011;70118;45.638;11.714;2023-11-18T02:05:31;4.28;;;1.40;;
59571;SDS011;70118;45.638;11.714;2023-11-18T02:07:58;4.68;;;1.58;;
59571;SDS011;70118;45.638;11.714;2023-11-18T02:10:26;4.17;;;1.40;;
59571;SDS011;70118;45.638;11.714;2023-11-18T02:15:26;3.90;;;1.30;;
59571;SDS011;70118;45.638;11.714;2023-11-18T02:17:57;3.78;;;1.30;;
59571;SDS011;70118;45.638;11.714;2023-11-18T02:20:23;4.03;;;1.45;;
59571;SDS011;70118;45.638;11.714;2023-11-18T02:22:49;4.40;;;1.23;;
59571;SDS011;70118;45.638;11.714;2023-11-18T02:25:16;4.60;;;1.42;;
59571;SDS011;70118;45.638;11.714;2023-11-18T02:27:44;3.55;;;1.23;;
59571;SDS011;70118;45.638;11.714;2023-11-18T02:30:13;3.70;;;1.00;;
59571;SDS011;70118;45.638;11.714;2023-11-18T02:37:51;3.92;;;1.30;;
59571;SDS011;70118;45.638;11.714;2023-11-18T02:40:20;4.43;;;1.40;;
59571;SDS011;70118;45.638;11.714;2023-11-18T02:42:55;4.30;;;1.50;;
59571;SDS011;70118;45.638;11.714;2023-11-18T02:45:24;4.07;;;1.20;;
59571;SDS011;70118;45.638;11.714;2023-11-18T02:47:50;4.70;;;1.70;;
59571;SDS011;70118;45.638;11.714;2023-11-18T02:50:16;3.85;;;1.23;;
59571;SDS011;70118;45.638;11.714;2023-11-18T02:52:44;4.70;;;1.25;;
59571;SDS011;70118;45.638;11.714;2023-11-18T02:55:10;4.25;;;1.60;;
59571;SDS011;70118;45.638;11.714;2023-11-18T02:57:36;4.30;;;1.30;;
59571;SDS011;70118;45.638;11.714;2023-11-18T03:00:04;3.63;;;1.30;;
59571;SDS011;70118;45.638;11.714;2023-11-18T03:02:33;4.20;;;1.17;;
59571;SDS011;70118;45.638;11.714;2023-11-18T03:04:59;4.35;;;1.40;;
59571;SDS011;70118;45.638;11.714;2023-11-18T03:07:25;4.93;;;1.40;;
59571;SDS011;70118;45.638;11.714;2023-11-18T03:09:54;4.70;;;1.48;;
59571;SDS011;70118;45.638;11.714;2023-11-18T03:12:22;4.10;;;1.37;;
59571;SDS011;70118;45.638;11.714;2023-11-18T03:14:52;4.25;;;1.58;;
59571;SDS011;70118;45.638;11.714;2023-11-18T03:17:18;5.15;;;1.50;;
59571;SDS011;70118;45.638;11.714;2023-11-18T03:19:45;4.80;;;1.88;;
59571;SDS011;70118;45.638;11.714;2023-11-18T03:22:11;3.97;;;1.40;;
59571;SDS011;70118;45.638;11.714;2023-11-18T03:24:39;4.03;;;1.40;;
59571;SDS011;70118;45.638;11.714;2023-11-18T03:27:05;3.95;;;1.02;;
59571;SDS011;70118;45.638;11.714;2023-11-18T03:29:34;4.35;;;1.50;;
59571;SDS011;70118;45.638;11.714;2023-11-18T03:31:59;3.50;;;1.02;;
59571;SDS011;70118;45.638;11.714;2023-11-18T03:34:25;4.00;;;1.30;;
59571;SDS011;70118;45.638;11.714;2023-11-18T03:36:52;4.18;;;1.30;;
59571;SDS011;70118;45.638;11.714;2023-11-18T03:39:20;4.85;;;1.20;;
59571;SDS011;70118;45.638;11.714;2023-11-18T03:41:46;4.00;;;1.20;;
59571;SDS011;70118;45.638;11.714;2023-11-18T03:44:12;4.63;;;1.33;;
59571;SDS011;70118;45.638;11.714;2023-11-18T03:46:38;4.00;;;1.20;;
59571;SDS011;70118;45.638;11.714;2023-11-18T03:49:04;4.43;;;1.13;;
59571;SDS011;70118;45.638;11.714;2023-11-18T03:51:30;4.63;;;1.30;;
59571;SDS011;70118;45.638;11.714;2023-11-18T03:53:55;3.88;;;1.10;;
59571;SDS011;70118;45.638;11.714;2023-11-18T03:56:21;4.30;;;1.00;;
59571;SDS011;70118;45.638;11.714;2023-11-18T03:58:47;4.35;;;1.48;;
59571;SDS011;70118;45.638;11.714;2023-11-18T04:01:23;3.60;;;1.00;;
59571;SDS011;70118;45.638;11.714;2023-11-18T04:03:51;3.97;;;1.10;;
59571;SDS011;70118;45.638;11.714;2023-11-18T04:06:18;3.70;;;1.20;;
59571;SDS011;70118;45.638;11.714;2023-11-18T04:08:46;4.00;;;1.20;;
59571;SDS011;70118;45.638;11.714;2023-11-18T04:11:13;4.38;;;1.27;;
59571;SDS011;70118;45.638;11.714;2023-11-18T04:13:42;4.35;;;1.23;;
59571;SDS011;70118;45.638;11.714;2023-11-18T04:16:12;3.80;;;1.20;;
59571;SDS011;70118;45.638;11.714;2023-11-18T04:18:40;3.40;;;1.13;;
59571;SDS011;70118;45.638;11.714;2023-11-18T04:21:07;3.85;;;1.25;;
59571;SDS011;70118;45.638;11.714;2023-11-18T04:23:37;3.60;;;1.10;;
59571;SDS011;70118;45.638;11.714;2023-11-18T04:26:06;4.10;;;1.08;;
59571;SDS011;70118;45.638;11.714;2023-11-18T04:28:35;4.22;;;0.90;;
59571;SDS011;70118;45.638;11.714;2023-11-18T04:31:02;4.13;;;1.00;;
59571;SDS011;70118;45.638;11.714;2023-11-18T04:33:28;3.28;;;1.02;;
59571;SDS011;70118;45.638;11.714;2023-11-18T04:35:54;3.50;;;1.00;;
59571;SDS011;70118;45.638;11.714;2023-11-18T04:38:23;3.95;;;0.98;;
59571;SDS011;70118;45.638;11.714;2023-11-18T04:40:51;4.15;;;1.13;;
59571;SDS011;70118;45.638;11.714;2023-11-18T04:43:19;3.43;;;1.00;;
59571;SDS011;70118;45.638;11.714;2023-11-18T04:45:45;3.35;;;1.00;;
59571;SDS011;70118;45.638;11.714;2023-11-18T04:48:11;2.90;;;0.68;;
59571;SDS011;70118;45.638;11.714;2023-11-18T04:50:43;3.78;;;0.90;;
59571;SDS011;70118;45.638;11.714;2023-11-18T04:53:09;3.92;;;1.08;;
59571;SDS011;70118;45.638;11.714;2023-11-18T04:55:36;3.90;;;0.90;;
59571;SDS011;70118;45.638;11.714;2023-11-18T04:58:02;3.75;;;1.20;;
59571;SDS011;70118;45.638;11.714;2023-11-18T05:00:31;4.63;;;1.08;;
59571;SDS011;70118;45.638;11.714;2023-11-18T05:02:58;3.92;;;0.88;;
59571;SDS011;70118;45.638;11.714;2023-11-18T05:05:23;3.37;;;0.90;;
59571;SDS011;70118;45.638;11.714;2023-11-18T05:07:49;4.13;;;1.05;;
59571;SDS011;70118;45.638;11.714;2023-11-18T05:10:15;3.25;;;0.82;;
59571;SDS011;70118;45.638;11.714;2023-11-18T05:12:41;3.57;;;1.00;;
59571;SDS011;70118;45.638;11.714;2023-11-18T05:15:08;3.42;;;0.82;;
59571;SDS011;70118;45.638;11.714;2023-11-18T05:17:35;4.20;;;0.98;;
59571;SDS011;70118;45.638;11.714;2023-11-18T05:20:05;3.72;;;0.93;;
59571;SDS011;70118;45.638;11.714;2023-11-18T05:22:36;3.35;;;0.63;;
59571;SDS011;70118;45.638;11.714;2023-11-18T05:25:02;3.77;;;0.80;;
59571;SDS011;70118;45.638;11.714;2023-11-18T05:27:30;3.40;;;0.77;;
59571;SDS011;70118;45.638;11.714;2023-11-18T05:29:56;3.78;;;0.93;;
59571;SDS011;70118;45.638;11.714;2023-11-18T05:32:27;3.38;;;0.70;;
59571;SDS011;70118;45.638;11.714;2023-11-18T05:34:54;2.97;;;0.77;;
59571;SDS011;70118;45.638;11.714;2023-11-18T05:37:22;2.93;;;0.70;;
59571;SDS011;70118;45.638;11.714;2023-11-18T05:39:53;3.28;;;0.70;;
59571;SDS011;70118;45.638;11.714;2023-11-18T05:42:27;2.97;;;0.90;;
59571;SDS011;70118;45.638;11.714;2023-11-18T05:44:53;4.05;;;1.13;;
59571;SDS011;70118;45.638;11.714;2023-11-18T05:47:24;3.15;;;0.65;;
59571;SDS011;70118;45.638;11.714;2023-11-18T05:49:51;3.20;;;0.80;;
59571;SDS011;70118;45.638;11.714;2023-11-18T05:52:18;3.42;;;0.80;;
59571;SDS011;70118;45.638;11.714;2023-11-18T05:54:45;3.55;;;0.80;;
59571;SDS011;70118;45.638;11.714;2023-11-18T05:57:15;3.20;;;0.70;;
59571;SDS011;70118;45.638;11.714;2023-11-18T05:59:41;3.42;;;1.10;;
59571;SDS011;70118;45.638;11.714;2023-11-18T06:02:08;3.83;;;0.80;;
59571;SDS011;70118;45.638;11.714;2023-11-18T06:04:36;3.53;;;0.80;;
59571;SDS011;70118;45.638;11.714;2023-11-18T06:07:02;3.75;;;0.82;;
59571;SDS011;70118;45.638;11.714;2023-11-18T06:09:28;3.33;;;0.87;;
59571;SDS011;70118;45.638;11.714;2023-11-18T06:11:54;3.67;;;0.82;;
59571;SDS011;70118;45.638;11.714;2023-11-18T06:14:20;3.17;;;0.68;;
59571;SDS011;70118;45.638;11.714;2023-11-18T06:16:49;3.60;;;0.70;;
59571;SDS011;70118;45.638;11.714;2023-11-18T06:19:15;3.85;;;1.08;;
59571;SDS011;70118;45.638;11.714;2023-11-18T06:21:41;3.30;;;0.77;;
59571;SDS011;70118;45.638;11.714;2023-11-18T06:24:07;4.00;;;0.90;;
59571;SDS011;70118;45.638;11.714;2023-11-18T06:26:36;4.47;;;0.88;;
59571;SDS011;70118;45.638;11.714;2023-11-18T06:29:02;3.07;;;0.73;;
59571;SDS011;70118;45.638;11.714;2023-11-18T06:31:29;3.25;;;0.98;;
59571;SDS011;70118;45.638;11.714;2023-11-18T06:33:55;4.13;;;1.05;;
59571;SDS011;70118;45.638;11.714;2023-11-18T06:36:22;4.38;;;1.10;;
59571;SDS011;70118;45.638;11.714;2023-11-18T06:38:52;4.53;;;1.33;;
59571;SDS011;70118;45.638;11.714;2023-11-18T06:41:20;4.75;;;1.67;;
59571;SDS011;70118;45.638;11.714;2023-11-18T06:43:58;4.43;;;1.10;;
59571;SDS011;70118;45.638;11.714;2023-11-18T06:48:58;3.95;;;1.15;;
59571;SDS011;70118;45.638;11.714;2023-11-18T06:51:28;3.40;;;0.70;;
59571;SDS011;70118;45.638;11.714;2023-11-18T06:53:56;3.83;;;0.93;;
59571;SDS011;70118;45.638;11.714;2023-11-18T06:56:23;3.42;;;0.80;;
59571;SDS011;70118;45.638;11.714;2023-11-18T06:58:49;3.65;;;0.90;;
59571;SDS011;70118;45.638;11.714;2023-11-18T07:01:15;3.53;;;0.73;;
59571;SDS011;70118;45.638;11.714;2023-11-18T07:03:42;3.20;;;0.70;;
59571;SDS011;70118;45.638;11.714;2023-11-18T07:06:09;4.05;;;1.10;;
59571;SDS011;70118;45.638;11.714;2023-11-18T07:08:38;3.63;;;0.70;;
59571;SDS011;70118;45.638;11.714;2023-11-18T07:11:04;3.97;;;0.90;;
59571;SDS011;70118;45.638;11.714;2023-11-18T07:13:31;3.92;;;0.80;;
59571;SDS011;70118;45.638;11.714;2023-11-18T07:16:02;3.20;;;0.70;;
59571;SDS011;70118;45.638;11.714;2023-11-18T07:18:30;3.42;;;0.60;;
59571;SDS011;70118;45.638;11.714;2023-11-18T07:20:56;2.90;;;0.55;;
59571;SDS011;70118;45.638;11.714;2023-11-18T07:23:24;2.47;;;0.57;;
59571;SDS011;70118;45.638;11.714;2023-11-18T07:25:51;3.05;;;0.50;;
59571;SDS011;70118;45.638;11.714;2023-11-18T07:28:23;4.77;;;0.90;;
59571;SDS011;70118;45.638;11.714;2023-11-18T07:30:55;4.15;;;0.80;;
59571;SDS011;70118;45.638;11.714;2023-11-18T07:33:23;3.80;;;0.90;;
59571;SDS011;70118;45.638;11.714;2023-11-18T07:35:50;3.42;;;0.75;;
59571;SDS011;70118;45.638;11.714;2023-11-18T07:38:17;3.00;;;0.57;;
59571;SDS011;70118;45.638;11.714;2023-11-18T07:40:47;3.07;;;0.50;;
59571;SDS011;70118;45.638;11.714;2023-11-18T07:43:13;3.03;;;0.57;;
59571;SDS011;70118;45.638;11.714;2023-11-18T07:45:40;3.03;;;0.77;;
59571;SDS011;70118;45.638;11.714;2023-11-18T07:48:08;3.50;;;0.95;;
59571;SDS011;70118;45.638;11.714;2023-11-18T07:50:37;3.07;;;0.70;;
59571;SDS011;70118;45.638;11.714;2023-11-18T07:53:07;2.55;;;0.57;;
59571;SDS011;70118;45.638;11.714;2023-11-18T07:55:35;4.53;;;0.60;;
59571;SDS011;70118;45.638;11.714;2023-11-18T07:58:09;3.22;;;0.70;;
59571;SDS011;70118;45.638;11.714;2023-11-18T08:00:42;3.88;;;0.63;;
59571;SDS011;70118;45.638;11.714;2023-11-18T08:03:12;3.10;;;0.70;;
59571;SDS011;70118;45.638;11.714;2023-11-18T08:05:41;3.45;;;0.60;;
59571;SDS011;70118;45.638;11.714;2023-11-18T08:08:14;3.90;;;0.68;;
59571;SDS011;70118;45.638;11.714;2023-11-18T08:10:44;4.90;;;0.55;;
59571;SDS011;70118;45.638;11.714;2023-11-18T08:13:22;3.22;;;0.50;;
59571;SDS011;70118;45.638;11.714;2023-11-18T08:15:49;2.70;;;0.60;;
59571;SDS011;70118;45.638;11.714;2023-11-18T08:18:15;3.50;;;0.70;;
59571;SDS011;70118;45.638;11.714;2023-11-18T08:20:42;2.72;;;0.60;;
59571;SDS011;70118;45.638;11.714;2023-11-18T08:23:10;3.35;;;0.98;;
59571;SDS011;70118;45.638;11.714;2023-11-18T08:25:42;3.97;;;0.80;;
59571;SDS011;70118;45.638;11.714;2023-11-18T08:28:11;3.00;;;0.77;;
59571;SDS011;70118;45.638;11.714;2023-11-18T08:30:40;3.38;;;0.60;;
59571;SDS011;70118;45.638;11.714;2023-11-18T08:33:15;3.33;;;0.70;;
59571;SDS011;70118;45.638;11.714;2023-11-18T08:35:42;3.90;;;0.70;;
59571;SDS011;70118;45.638;11.714;2023-11-18T08:38:08;3.07;;;0.60;;
59571;SDS011;70118;45.638;11.714;2023-11-18T08:40:37;4.50;;;1.20;;
59571;SDS011;70118;45.638;11.714;2023-11-18T08:43:03;3.80;;;1.00;;
59571;SDS011;70118;45.638;11.714;2023-11-18T08:45:33;3.30;;;0.50;;
59571;SDS011;70118;45.638;11.714;2023-11-18T08:48:05;3.58;;;0.98;;
59571;SDS011;70118;45.638;11.714;2023-11-18T08:50:33;3.67;;;0.83;;
59571;SDS011;70118;45.638;11.714;2023-11-18T08:53:00;4.38;;;1.17;;
59571;SDS011;70118;45.638;11.714;2023-11-18T08:55:30;4.72;;;1.30;;
59571;SDS011;70118;45.638;11.714;2023-11-18T08:58:06;3.92;;;1.00;;
59571;SDS011;70118;45.638;11.714;2023-11-18T09:00:58;4.07;;;1.00;;
59571;SDS011;70118;45.638;11.714;2023-11-18T09:03:37;4.30;;;1.20;;
59571;SDS011;70118;45.638;11.714;2023-11-18T09:06:08;4.93;;;1.58;;
59571;SDS011;70118;45.638;11.714;2023-11-18T09:08:50;4.68;;;1.58;;
59571;SDS011;70118;45.638;11.714;2023-11-18T09:11:20;3.88;;;1.27;;
59571;SDS011;70118;45.638;11.714;2023-11-18T09:13:54;3.75;;;1.25;;
59571;SDS011;70118;45.638;11.714;2023-11-18T09:16:23;4.30;;;1.13;;
59571;SDS011;70118;45.638;11.714;2023-11-18T09:18:54;3.88;;;1.40;;
59571;SDS011;70118;45.638;11.714;2023-11-18T09:21:23;6.00;;;1.55;;
59571;SDS011;70118;45.638;11.714;2023-11-18T09:23:52;4.68;;;1.42;;
59571;SDS011;70118;45.638;11.714;2023-11-18T09:26:21;4.93;;;1.45;;
59571;SDS011;70118;45.638;11.714;2023-11-18T09:28:47;4.37;;;1.40;;
59571;SDS011;70118;45.638;11.714;2023-11-18T09:31:15;5.10;;;1.60;;
59571;SDS011;70118;45.638;11.714;2023-11-18T09:33:42;5.30;;;2.05;;
59571;SDS011;70118;45.638;11.714;2023-11-18T09:36:25;6.55;;;1.48;;
59571;SDS011;70118;45.638;11.714;2023-11-18T09:38:53;5.78;;;1.80;;
59571;SDS011;70118;45.638;11.714;2023-11-18T09:41:20;5.30;;;1.83;;
59571;SDS011;70118;45.638;11.714;2023-11-18T09:43:50;4.63;;;1.77;;
59571;SDS011;70118;45.638;11.714;2023-11-18T09:46:28;5.05;;;1.67;;
59571;SDS011;70118;45.638;11.714;2023-11-18T09:51:50;5.75;;;1.95;;
59571;SDS011;70118;45.638;11.714;2023-11-18T09:57:27;4.82;;;2.08;;
59571;SDS011;70118;45.638;11.714;2023-11-18T10:00:05;5.18;;;1.98;;
59571;SDS011;70118;45.638;11.714;2023-11-18T10:03:08;5.57;;;2.05;;
59571;SDS011;70118;45.638;11.714;2023-11-18T10:05:37;6.00;;;2.22;;
59571;SDS011;70118;45.638;11.714;2023-11-18T10:08:07;5.30;;;2.30;;
59571;SDS011;70118;45.638;11.714;2023-11-18T10:10:33;4.97;;;2.25;;
59571;SDS011;70118;45.638;11.714;2023-11-18T10:13:10;5.78;;;2.08;;
59571;SDS011;70118;45.638;11.714;2023-11-18T10:15:47;7.43;;;2.45;;
59571;SDS011;70118;45.638;11.714;2023-11-18T10:18:17;5.80;;;2.47;;
59571;SDS011;70118;45.638;11.714;2023-11-18T10:20:49;7.30;;;2.47;;
59571;SDS011;70118;45.638;11.714;2023-11-18T10:23:17;5.43;;;2.60;;
59571;SDS011;70118;45.638;11.714;2023-11-18T10:25:50;6.07;;;2.97;;
59571;SDS011;70118;45.638;11.714;2023-11-18T10:28:21;5.70;;;2.38;;
59571;SDS011;70118;45.638;11.714;2023-11-18T10:31:02;6.05;;;2.53;;
59571;SDS011;70118;45.638;11.714;2023-11-18T10:33:34;6.80;;;3.13;;
59571;SDS011;70118;45.638;11.714;2023-11-18T10:36:02;5.43;;;2.38;;
59571;SDS011;70118;45.638;11.714;2023-11-18T10:38:29;5.60;;;2.67;;
59571;SDS011;70118;45.638;11.714;2023-11-18T10:40:57;5.75;;;2.67;;
59571;SDS011;70118;45.638;11.714;2023-11-18T10:43:26;5.63;;;2.50;;
59571;SDS011;70118;45.638;11.714;2023-11-18T10:46:15;5.57;;;2.40;;
59571;SDS011;70118;45.638;11.714;2023-11-18T10:48:44;5.10;;;2.10;;
59571;SDS011;70118;45.638;11.714;2023-11-18T10:51:16;5.45;;;2.17;;
59571;SDS011;70118;45.638;11.714;2023-11-18T10:53:46;5.20;;;2.38;;
59571;SDS011;70118;45.638;11.714;2023-11-18T10:56:24;4.68;;;2.15;;
59571;SDS011;70118;45.638;11.714;2023-11-18T10:59:04;5.63;;;2.20;;
59571;SDS011;70118;45.638;11.714;2023-11-18T11:01:31;6.28;;;2.42;;
59571;SDS011;70118;45.638;11.714;2023-11-18T11:03:58;5.97;;;2.60;;
59571;SDS011;70118;45.638;11.714;2023-11-18T11:06:25;5.38;;;2.00;;
59571;SDS011;70118;45.638;11.714;2023-11-18T11:08:56;5.30;;;2.50;;
59571;SDS011;70118;45.638;11.714;2023-11-18T11:11:26;6.53;;;2.60;;
59571;SDS011;70118;45.638;11.714;2023-11-18T11:14:04;4.80;;;2.20;;
59571;SDS011;70118;45.638;11.714;2023-11-18T11:16:41;6.82;;;2.45;;
59571;SDS011;70118;45.638;11.714;2023-11-18T11:19:54;5.03;;;2.08;;
59571;SDS011;70118;45.638;11.714;2023-11-18T11:22:09;5.57;;;2.33;;
59571;SDS011;70118;45.638;11.714;2023-11-18T11:27:50;5.50;;;2.15;;
59571;SDS011;70118;45.638;11.714;2023-11-18T11:30:33;5.20;;;2.42;;
59571;SDS011;70118;45.638;11.714;2023-11-18T11:35:45;6.10;;;2.40;;
59571;SDS011;70118;45.638;11.714;2023-11-18T11:38:17;5.80;;;2.53;;
59571;SDS011;70118;45.638;11.714;2023-11-18T11:40:44;5.10;;;2.13;;
59571;SDS011;70118;45.638;11.714;2023-11-18T11:43:12;6.68;;;2.47;;
59571;SDS011;70118;45.638;11.714;2023-11-18T11:45:46;5.03;;;2.55;;
59571;SDS011;70118;45.638;11.714;2023-11-18T11:48:14;6.55;;;2.47;;
59571;SDS011;70118;45.638;11.714;2023-11-18T11:54:00;4.60;;;2.22;;
59571;SDS011;70118;45.638;11.714;2023-11-18T11:56:41;5.60;;;2.65;;
59571;SDS011;70118;45.638;11.714;2023-11-18T11:59:08;5.10;;;2.50;;
59571;SDS011;70118;45.638;11.714;2023-11-18T12:01:37;4.82;;;2.25;;
59571;SDS011;70118;45.638;11.714;2023-11-18T12:04:04;5.43;;;2.50;;
59571;SDS011;70118;45.638;11.714;2023-11-18T12:06:41;5.35;;;2.40;;
59571;SDS011;70118;45.638;11.714;2023-11-18T12:09:09;5.82;;;3.13;;
59571;SDS011;70118;45.638;11.714;2023-11-18T12:11:35;4.47;;;2.30;;
59571;SDS011;70118;45.638;11.714;2023-11-18T12:14:08;7.03;;;2.88;;
59571;SDS011;70118;45.638;11.714;2023-11-18T12:17:05;5.63;;;2.47;;
59571;SDS011;70118;45.638;11.714;2023-11-18T12:19:33;6.43;;;2.63;;
59571;SDS011;70118;45.638;11.714;2023-11-18T12:22:25;5.40;;;2.58;;
59571;SDS011;70118;45.638;11.714;2023-11-18T12:27:41;6.20;;;2.83;;
59571;SDS011;70118;45.638;11.714;2023-11-18T12:32:57;5.40;;;3.00;;
59571;SDS011;70118;45.638;11.714;2023-11-18T12:35:25;6.65;;;2.78;;
59571;SDS011;70118;45.638;11.714;2023-11-18T12:38:08;5.50;;;2.72;;
59571;SDS011;70118;45.638;11.714;2023-11-18T12:41:02;5.30;;;2.25;;
59571;SDS011;70118;45.638;11.714;2023-11-18T12:43:47;5.00;;;2.50;;
59571;SDS011;70118;45.638;11.714;2023-11-18T12:46:25;5.50;;;2.40;;
59571;SDS011;70118;45.638;11.714;2023-11-18T12:49:19;5.50;;;2.10;;
59571;SDS011;70118;45.638;11.714;2023-11-18T12:51:53;6.47;;;2.53;;
59571;SDS011;70118;45.638;11.714;2023-11-18T12:54:27;5.55;;;2.70;;
59571;SDS011;70118;45.638;11.714;2023-11-18T12:57:02;5.83;;;2.40;;
59571;SDS011;70118;45.638;11.714;2023-11-18T12:59:34;4.68;;;2.10;;
59571;SDS011;70118;45.638;11.714;2023-11-18T13:02:11;7.05;;;2.45;;
59571;SDS011;70118;45.638;11.714;2023-11-18T13:04:49;6.95;;;2.47;;
59571;SDS011;70118;45.638;11.714;2023-11-18T13:07:22;5.40;;;2.30;;
59571;SDS011;70118;45.638;11.714;2023-11-18T13:09:50;5.43;;;2.10;;
59571;SDS011;70118;45.638;11.714;2023-11-18T13:12:16;5.95;;;2.08;;
59571;SDS011;70118;45.638;11.714;2023-11-18T13:14:45;4.95;;;2.30;;
59571;SDS011;70118;45.638;11.714;2023-11-18T13:17:13;5.75;;;2.50;;
59571;SDS011;70118;45.638;11.714;2023-11-18T13:19:43;6.25;;;2.40;;
59571;SDS011;70118;45.638;11.714;2023-11-18T13:22:11;6.90;;;2.50;;
59571;SDS011;70118;45.638;11.714;2023-11-18T13:24:39;5.03;;;2.08;;
59571;SDS011;70118;45.638;11.714;2023-11-18T13:27:06;6.20;;;2.50;;
59571;SDS011;70118;45.638;11.714;2023-11-18T13:29:37;5.25;;;2.20;;
59571;SDS011;70118;45.638;11.714;2023-11-18T13:32:06;5.53;;;2.40;;
59571;SDS011;70118;45.638;11.714;2023-11-18T13:34:36;5.80;;;2.33;;
59571;SDS011;70118;45.638;11.714;2023-11-18T13:37:03;5.50;;;2.25;;
59571;SDS011;70118;45.638;11.714;2023-11-18T13:39:31;5.30;;;2.40;;
59571;SDS011;70118;45.638;11.714;2023-11-18T13:41:58;5.90;;;2.58;;
59571;SDS011;70118;45.638;11.714;2023-11-18T13:44:44;5.35;;;2.05;;
59571;SDS011;70118;45.638;11.714;2023-11-18T13:47:11;5.60;;;2.17;;
59571;SDS011;70118;45.638;11.714;2023-11-18T13:49:37;6.10;;;2.42;;
59571;SDS011;70118;45.638;11.714;2023-11-18T13:52:07;4.97;;;2.17;;
59571;SDS011;70118;45.638;11.714;2023-11-18T13:54:36;6.13;;;2.08;;
59571;SDS011;70118;45.638;11.714;2023-11-18T13:57:04;4.90;;;2.07;;
59571;SDS011;70118;45.638;11.714;2023-11-18T13:59:31;4.20;;;1.85;;
59571;SDS011;70118;45.638;11.714;2023-11-18T14:01:59;6.30;;;2.13;;
59571;SDS011;70118;45.638;11.714;2023-11-18T14:05:02;5.57;;;2.10;;
59571;SDS011;70118;45.638;11.714;2023-11-18T14:07:30;5.30;;;1.92;;
59571;SDS011;70118;45.638;11.714;2023-11-18T14:09:56;5.53;;;2.00;;
59571;SDS011;70118;45.638;11.714;2023-11-18T14:12:25;4.55;;;1.67;;
59571;SDS011;70118;45.638;11.714;2023-11-18T14:14:52;5.70;;;2.08;;
59571;SDS011;70118;45.638;11.714;2023-11-18T14:17:18;5.05;;;2.22;;
59571;SDS011;70118;45.638;11.714;2023-11-18T14:19:44;4.97;;;1.90;;
59571;SDS011;70118;45.638;11.714;2023-11-18T14:22:10;5.13;;;2.10;;
59571;SDS011;70118;45.638;11.714;2023-11-18T14:24:36;5.50;;;2.38;;
59571;SDS011;70118;45.638;11.714;2023-11-18T14:27:03;5.97;;;1.65;;
59571;SDS011;70118;45.638;11.714;2023-11-18T14:29:36;3.85;;;1.60;;
59571;SDS011;70118;45.638;11.714;2023-11-18T14:32:05;4.28;;;1.50;;
59571;SDS011;70118;45.638;11.714;2023-11-18T14:34:33;6.13;;;1.70;;
59571;SDS011;70118;45.638;11.714;2023-11-18T14:36:59;4.65;;;2.05;;
59571;SDS011;70118;45.638;11.714;2023-11-18T14:39:26;5.55;;;2.08;;
59571;SDS011;70118;45.638;11.714;2023-11-18T14:41:52;4.30;;;1.67;;
59571;SDS011;70118;45.638;11.714;2023-11-18T14:44:18;5.80;;;1.70;;
59571;SDS011;70118;45.638;11.714;2023-11-18T14:46:45;5.57;;;1.87;;
59571;SDS011;70118;45.638;11.714;2023-11-18T14:49:12;3.90;;;1.40;;
59571;SDS011;70118;45.638;11.714;2023-11-18T14:51:38;4.63;;;1.73;;
59571;SDS011;70118;45.638;11.714;2023-11-18T14:54:05;4.40;;;1.65;;
59571;SDS011;70118;45.638;11.714;2023-11-18T14:56:31;4.60;;;1.90;;
59571;SDS011;70118;45.638;11.714;2023-11-18T14:58:57;5.40;;;1.70;;
59571;SDS011;70118;45.638;11.714;2023-11-18T15:01:22;4.72;;;1.58;;
59571;SDS011;70118;45.638;11.714;2023-11-18T15:03:50;4.70;;;1.75;;
59571;SDS011;70118;45.638;11.714;2023-11-18T15:06:23;4.43;;;1.70;;
59571;SDS011;70118;45.638;11.714;2023-11-18T15:08:52;4.53;;;1.85;;
59571;SDS011;70118;45.638;11.714;2023-11-18T15:11:22;6.28;;;1.65;;
59571;SDS011;70118;45.638;11.714;2023-11-18T15:13:49;5.13;;;1.67;;
59571;SDS011;70118;45.638;11.714;2023-11-18T15:16:18;4.28;;;1.67;;